This is the latest recevied weather packets stored in our database for station/object VU3HGG-WX. If no packets are shown the sender has not sent any weather packets the latest 10 day(s).
| Time | Temp. | Humidity | Pressure | Rain* | Wind** | Luminosity | Snow |
|---|---|---|---|---|---|---|---|
| 1788147150 | 25.56° C | 70% | 911.8 hPa | - | - | - | - |
| 1788146550 | 25° C | 71% | 911.8 hPa | - | - | - | - |
| 1788145949 | 24.44° C | 72% | 911.9 hPa | - | - | - | - |
| 1788145350 | 24.44° C | 68% | 911.8 hPa | - | - | - | - |
| 1788136362 | 25.56° C | 68% | 910.4 hPa | - | - | - | - |
| 1788135762 | 25° C | 69% | 910.3 hPa | - | - | - | - |
| 1788135162 | 25.56° C | 69% | 910.2 hPa | - | - | - | - |
| 1788134562 | 25.56° C | 69% | 910.2 hPa | - | - | - | - |
| 1788133963 | 25.56° C | 68% | 910.2 hPa | - | - | - | - |
| 1788133362 | 25.56° C | 69% | 910.3 hPa | - | - | - | - |
| 1788132762 | 25.56° C | 69% | 910.3 hPa | - | - | - | - |
| 1788132162 | 25.56° C | 68% | 910.2 hPa | - | - | - | - |
| 1788131562 | 25° C | 70% | 910.2 hPa | - | - | - | - |
| 1788130962 | 25.56° C | 68% | 910.2 hPa | - | - | - | - |
| 1788130362 | 25° C | 70% | 910.1 hPa | - | - | - | - |
| 1788129762 | 25.56° C | 69% | 910.1 hPa | - | - | - | - |
| 1788129162 | 25.56° C | 69% | 910.1 hPa | - | - | - | - |
| 1788128562 | 25.56° C | 68% | 910 hPa | - | - | - | - |
| 1788127963 | 25.56° C | 70% | 910 hPa | - | - | - | - |
| 1788127362 | 25.56° C | 69% | 910 hPa | - | - | - | - |
| 1788126762 | 25.56° C | 69% | 910 hPa | - | - | - | - |
| 1788126162 | 25.56° C | 69% | 910 hPa | - | - | - | - |
| 1788126063 | 25.56° C | 69% | 910.1 hPa | - | - | - | - |
| 1788125604 | 26.11° C | 68% | 910.1 hPa | - | - | - | - |
| 1788125004 | 25.56° C | 69% | 910.1 hPa | - | - | - | - |
* Rain since midnight (hover to see other rain measurements)
** Current wind speed in m/s (hover to see current wind gust speed)